createdAt,value
2023-04-15T00:00:01.350Z,8.0385
2023-04-15T00:01:03.039Z,9.2308
2023-04-15T00:02:04.708Z,7.7385
2023-04-15T00:03:06.476Z,9.9462
2023-04-15T00:04:08.056Z,7.0308
2023-04-15T00:05:09.624Z,8.9231
2023-04-15T00:06:11.324Z,6.7538
2023-04-15T00:07:12.966Z,7.4538
2023-04-15T00:08:14.572Z,7.7615
2023-04-15T00:09:16.254Z,7.9000
2023-04-15T00:10:17.894Z,8.6308
2023-04-15T00:11:19.585Z,6.3538
2023-04-15T00:12:21.189Z,7.1923
2023-04-15T00:13:22.825Z,7.7923
2023-04-15T00:14:24.526Z,9.5692
2023-04-15T00:15:26.099Z,6.5846
2023-04-15T00:16:27.840Z,6.8154
2023-04-15T00:17:29.503Z,6.0615
2023-04-15T00:18:31.083Z,7.8077
2023-04-15T00:19:32.809Z,7.8692
2023-04-15T00:20:34.402Z,8.3308
2023-04-15T00:21:36.083Z,8.7154
2023-04-15T00:22:37.746Z,7.5615
2023-04-15T00:23:39.387Z,6.9846
2023-04-15T00:24:41.004Z,9.1308
2023-04-15T00:25:42.662Z,7.6000
2023-04-15T00:26:44.401Z,7.3615
2023-04-15T00:27:45.962Z,7.5538
2023-04-15T00:28:47.651Z,6.9923
2023-04-15T00:29:49.363Z,7.4538
2023-04-15T00:30:51.058Z,8.7462
2023-04-15T00:31:52.704Z,10.0231
2023-04-15T00:32:54.391Z,7.9538
2023-04-15T00:33:55.965Z,8.1615
2023-04-15T00:34:57.712Z,9.5385
2023-04-15T00:35:59.329Z,8.7000
2023-04-15T00:37:00.980Z,7.5308
2023-04-15T00:38:02.663Z,7.0000
2023-04-15T00:39:04.240Z,7.2538
2023-04-15T00:40:05.969Z,6.3077
2023-04-15T00:41:07.590Z,5.8000
2023-04-15T00:42:09.288Z,6.3615
2023-04-15T00:43:10.907Z,8.3154
2023-04-15T00:44:12.553Z,10.0846
2023-04-15T00:45:14.220Z,6.4615
2023-04-15T00:46:15.907Z,7.2615
2023-04-15T00:47:17.565Z,7.6769
2023-04-15T00:48:19.153Z,7.0154
2023-04-15T00:49:20.794Z,8.1154
2023-04-15T00:50:22.417Z,6.6692
2023-04-15T00:51:24.109Z,6.3846
2023-04-15T00:52:25.778Z,7.7231
2023-04-15T00:53:27.449Z,7.3385
2023-04-15T00:54:29.081Z,7.5000
2023-04-15T00:55:30.688Z,6.8923
2023-04-15T00:56:32.350Z,6.8000
2023-04-15T00:57:34.080Z,5.9231
2023-04-15T00:58:35.591Z,7.6923
2023-04-15T00:59:37.213Z,6.8231
2023-04-15T01:00:38.877Z,7.8692
2023-04-15T01:01:40.571Z,5.8923
2023-04-15T01:02:42.322Z,5.8308
2023-04-15T01:03:44.027Z,6.5385
2023-04-15T01:04:45.471Z,6.5923
2023-04-15T01:05:47.132Z,6.3615
2023-04-15T01:06:48.831Z,5.5308
2023-04-15T01:07:50.488Z,7.8462
2023-04-15T01:08:52.108Z,7.4538
2023-04-15T01:09:53.778Z,7.6000
2023-04-15T01:10:55.426Z,7.7692
2023-04-15T01:11:57.088Z,8.7692
2023-04-15T01:12:58.780Z,6.4000
2023-04-15T01:14:00.427Z,6.8462
2023-04-15T01:15:02.048Z,7.4846
2023-04-15T01:16:03.772Z,6.2462
2023-04-15T01:17:05.389Z,7.0615
2023-04-15T01:18:07.059Z,7.0077
2023-04-15T01:19:08.662Z,7.2231
2023-04-15T01:20:10.330Z,7.2000
2023-04-15T01:21:12.030Z,7.8231
2023-04-15T01:22:13.626Z,7.3308
2023-04-15T01:23:15.291Z,8.5769
2023-04-15T01:24:16.969Z,7.2769
2023-04-15T01:25:18.669Z,8.2846
2023-04-15T01:26:20.273Z,7.5231
2023-04-15T01:27:21.926Z,7.1385
2023-04-15T01:28:23.593Z,6.1615
2023-04-15T01:29:25.228Z,8.1385
2023-04-15T01:30:26.870Z,8.0538
2023-04-15T01:31:28.602Z,7.4000
2023-04-15T01:32:30.206Z,6.0231
2023-04-15T01:33:31.985Z,6.6692
2023-04-15T01:34:35.632Z,6.2385
2023-04-15T01:35:35.262Z,6.1692
2023-04-15T01:36:36.888Z,7.1000
2023-04-15T01:37:38.470Z,7.4692
2023-04-15T01:38:40.129Z,6.3077
2023-04-15T01:39:41.744Z,6.5000
2023-04-15T01:40:43.421Z,7.3846
2023-04-15T01:41:45.063Z,6.6077
2023-04-15T01:42:46.715Z,6.5231
2023-04-15T01:43:48.406Z,6.6846
2023-04-15T01:44:50.027Z,6.5154
2023-04-15T01:45:51.710Z,8.0385
2023-04-15T01:46:53.423Z,7.1077
2023-04-15T01:47:55.014Z,5.3000
2023-04-15T01:48:56.733Z,7.2846
2023-04-15T01:49:58.311Z,6.0154
2023-04-15T01:50:59.928Z,6.4615
2023-04-15T01:52:01.695Z,5.7308
2023-04-15T01:53:03.236Z,6.8923
2023-04-15T01:54:04.985Z,6.2000
2023-04-15T01:55:06.590Z,4.7385
2023-04-15T01:56:08.190Z,5.8154
2023-04-15T01:57:09.883Z,6.8308
2023-04-15T01:58:11.491Z,8.1846
2023-04-15T01:59:13.198Z,7.1769
2023-04-15T02:00:14.810Z,6.0846
2023-04-15T02:01:16.499Z,7.4231
2023-04-15T02:02:18.136Z,7.2846
2023-04-15T02:03:19.904Z,6.1154
2023-04-15T02:04:21.453Z,6.3615
2023-04-15T02:05:23.061Z,5.8538
2023-04-15T02:06:24.712Z,6.5769
2023-04-15T02:07:26.371Z,6.3000
2023-04-15T02:08:28.032Z,6.9462
2023-04-15T02:09:29.695Z,8.3385
2023-04-15T02:10:31.298Z,7.1923
2023-04-15T02:11:32.976Z,9.2385
2023-04-15T02:12:34.616Z,5.8231
2023-04-15T02:13:36.320Z,7.2462
2023-04-15T02:14:37.982Z,6.1000
2023-04-15T02:15:39.581Z,6.6923
2023-04-15T02:16:41.321Z,5.0692
2023-04-15T02:17:42.946Z,5.1308
2023-04-15T02:18:44.581Z,6.4615
2023-04-15T02:19:46.221Z,6.3000
2023-04-15T02:20:47.847Z,6.6769
2023-04-15T02:21:49.504Z,5.8231
2023-04-15T02:22:51.156Z,5.3846
2023-04-15T02:23:54.011Z,7.7231
2023-04-15T02:24:54.530Z,5.9077
2023-04-15T02:25:56.120Z,6.3615
2023-04-15T02:26:57.774Z,6.2462
2023-04-15T02:28:00.400Z,6.5846
2023-04-15T02:29:01.274Z,8.2692
2023-04-15T02:30:02.859Z,5.5385
2023-04-15T02:31:04.469Z,6.9846
2023-04-15T02:32:06.275Z,5.9231
2023-04-15T02:33:07.782Z,6.1923
2023-04-15T02:34:09.477Z,7.0692
2023-04-15T02:35:11.139Z,6.7538
2023-04-15T02:36:12.780Z,7.6154
2023-04-15T02:37:14.429Z,6.6769
2023-04-15T02:38:16.083Z,6.7077
2023-04-15T02:39:17.717Z,5.8462
2023-04-15T02:40:19.297Z,6.3846
2023-04-15T02:41:20.934Z,6.6846
2023-04-15T02:42:22.621Z,5.4231
2023-04-15T02:43:24.261Z,5.8923
2023-04-15T02:44:25.935Z,4.7615
2023-04-15T02:45:27.628Z,5.6846
2023-04-15T02:46:29.337Z,5.3154
2023-04-15T02:47:30.943Z,4.6462
2023-04-15T02:48:32.557Z,4.6154
2023-04-15T02:49:34.180Z,5.6615
2023-04-15T02:50:35.878Z,4.5308
2023-04-15T02:51:37.454Z,5.5077
2023-04-15T02:52:39.116Z,4.6308
2023-04-15T02:53:40.790Z,4.6615
2023-04-15T02:54:42.426Z,4.2462
2023-04-15T02:55:44.133Z,3.9385
2023-04-15T02:56:45.715Z,4.7385
2023-04-15T02:57:47.378Z,5.0538
2023-04-15T02:58:49.076Z,5.2154
2023-04-15T02:59:50.688Z,6.1462
2023-04-15T03:00:52.389Z,4.9000
2023-04-15T03:01:54.156Z,5.3462
2023-04-15T03:02:55.769Z,4.3231
2023-04-15T03:03:57.443Z,3.8769
2023-04-15T03:04:58.935Z,5.1000
2023-04-15T03:06:00.631Z,4.2154
2023-04-15T03:07:02.246Z,4.2538
2023-04-15T03:08:03.924Z,3.6846
2023-04-15T03:09:05.548Z,3.5615
2023-04-15T03:10:07.208Z,4.9000
2023-04-15T03:11:08.891Z,4.0385
2023-04-15T03:12:10.493Z,4.2231
2023-04-15T03:13:12.098Z,4.4923
2023-04-15T03:14:13.763Z,5.0000
2023-04-15T03:15:15.537Z,4.8385
2023-04-15T03:16:17.263Z,5.0769
2023-04-15T03:17:18.792Z,5.2308
2023-04-15T03:18:20.589Z,5.3538
2023-04-15T03:19:22.073Z,4.7000
2023-04-15T03:20:23.808Z,3.1769
2023-04-15T03:21:25.483Z,4.2154
2023-04-15T03:22:27.052Z,4.7154
2023-04-15T03:23:28.737Z,5.0385
2023-04-15T03:24:30.369Z,3.9769
2023-04-15T03:25:32.111Z,5.7846
2023-04-15T03:26:33.739Z,5.5846
2023-04-15T03:27:35.372Z,5.2385
2023-04-15T03:28:36.971Z,3.5462
2023-04-15T03:29:38.622Z,3.5231
2023-04-15T03:30:40.353Z,4.2077
2023-04-15T03:31:42.032Z,3.7000
2023-04-15T03:32:43.563Z,4.1000
2023-04-15T03:33:45.215Z,3.7231
2023-04-15T03:34:46.891Z,3.6538
2023-04-15T03:35:48.491Z,4.1692
2023-04-15T03:36:50.234Z,3.3154
2023-04-15T03:37:51.771Z,4.1462
2023-04-15T03:38:53.414Z,4.9846
2023-04-15T03:39:55.107Z,5.1769
2023-04-15T03:40:56.711Z,3.7385
2023-04-15T03:41:58.428Z,5.0538
2023-04-15T03:43:00.130Z,2.9846
2023-04-15T03:44:01.574Z,3.7923
2023-04-15T03:45:03.275Z,4.8923
2023-04-15T03:46:04.951Z,5.0615
2023-04-15T03:47:06.633Z,4.4615
2023-04-15T03:48:17.060Z,3.9769
2023-04-15T03:49:09.862Z,4.9000
2023-04-15T03:50:11.494Z,3.9538
2023-04-15T03:51:13.114Z,3.9077
2023-04-15T03:52:14.764Z,3.2846
2023-04-15T03:53:16.412Z,4.1231
2023-04-15T03:54:18.078Z,4.4000
2023-04-15T03:55:19.720Z,5.1385
2023-04-15T03:56:21.344Z,5.3462
2023-04-15T03:57:23.007Z,4.7000
2023-04-15T03:58:24.648Z,3.7154
2023-04-15T03:59:26.271Z,5.0538
2023-04-15T04:00:27.955Z,4.9692
2023-04-15T04:01:29.570Z,5.2462
2023-04-15T04:02:31.335Z,4.2538
2023-04-15T04:03:32.951Z,4.6769
2023-04-15T04:04:34.558Z,4.6462
2023-04-15T04:05:36.152Z,4.4538
2023-04-15T04:06:37.803Z,6.0077
2023-04-15T04:07:39.473Z,4.3769
2023-04-15T04:08:41.111Z,5.6000
2023-04-15T04:09:42.734Z,4.3462
2023-04-15T04:10:44.394Z,4.6692
2023-04-15T04:11:46.031Z,5.2462
2023-04-15T04:12:47.782Z,4.7538
2023-04-15T04:13:49.347Z,5.0077
2023-04-15T04:14:50.947Z,4.9154
2023-04-15T04:15:52.657Z,3.5538
2023-04-15T04:16:54.319Z,4.9462
2023-04-15T04:17:55.993Z,5.4692
2023-04-15T04:18:57.583Z,4.4308
2023-04-15T04:19:59.324Z,4.4385
2023-04-15T04:21:00.947Z,4.2385
2023-04-15T04:22:02.705Z,2.6385
2023-04-15T04:23:04.313Z,4.9923
2023-04-15T04:24:05.830Z,4.2923
2023-04-15T04:25:07.440Z,4.0846
2023-04-15T04:26:09.142Z,3.0923
2023-04-15T04:27:10.797Z,4.5308
2023-04-15T04:28:12.416Z,4.7923
2023-04-15T04:29:14.051Z,4.0308
2023-04-15T04:30:15.715Z,4.0846
2023-04-15T04:31:17.420Z,4.0000
2023-04-15T04:32:19.069Z,3.8692
2023-04-15T04:33:20.656Z,5.5538
2023-04-15T04:34:22.312Z,5.4692
2023-04-15T04:35:23.956Z,4.0154
2023-04-15T04:36:25.579Z,5.5231
2023-04-15T04:37:27.313Z,2.5769
2023-04-15T04:38:28.880Z,3.8231
2023-04-15T04:39:30.570Z,3.4462
2023-04-15T04:40:32.166Z,4.1000
2023-04-15T04:41:33.838Z,3.1846
2023-04-15T04:42:36.803Z,3.9000
2023-04-15T04:43:37.128Z,4.9308
2023-04-15T04:44:38.779Z,2.4615
2023-04-15T04:45:40.464Z,4.6077
2023-04-15T04:46:42.085Z,4.8692
2023-04-15T04:47:43.836Z,3.5923
2023-04-15T04:49:00.000Z,3.2385
2023-04-15T04:49:47.062Z,4.7000
2023-04-15T04:50:48.665Z,4.1846
2023-04-15T04:51:50.368Z,5.2538
2023-04-15T04:52:52.024Z,3.6154
2023-04-15T04:53:53.655Z,3.3923
2023-04-15T04:54:55.278Z,3.3308
2023-04-15T04:55:56.928Z,3.8308
2023-04-15T04:56:58.588Z,4.1615
2023-04-15T04:58:00.268Z,5.7692
2023-04-15T04:59:02.130Z,2.8846
2023-04-15T05:00:03.608Z,3.2154
2023-04-15T05:01:05.316Z,2.8154
2023-04-15T05:02:06.930Z,2.7462
2023-04-15T05:03:08.763Z,3.4154
2023-04-15T05:04:10.396Z,3.0462
2023-04-15T05:05:11.882Z,2.4692
2023-04-15T05:06:13.525Z,3.0000
2023-04-15T05:07:15.160Z,3.2923
2023-04-15T05:08:16.856Z,3.9692
2023-04-15T05:09:18.548Z,4.1462
2023-04-15T05:10:20.145Z,3.8615
2023-04-15T05:11:21.874Z,3.4077
2023-04-15T05:12:23.435Z,4.0769
2023-04-15T05:13:25.145Z,3.7846
2023-04-15T05:14:26.752Z,3.3846
2023-04-15T05:15:28.539Z,2.8923
2023-04-15T05:16:29.912Z,3.2154
2023-04-15T05:17:31.779Z,2.3231
2023-04-15T05:18:33.419Z,3.8923
2023-04-15T05:19:35.003Z,3.4846
2023-04-15T05:20:36.623Z,3.8231
2023-04-15T05:21:39.512Z,3.6538
2023-04-15T05:22:39.954Z,4.4615
2023-04-15T05:23:41.624Z,3.0231
2023-04-15T05:24:43.294Z,4.1846
2023-04-15T05:25:44.907Z,3.3385
2023-04-15T05:26:46.589Z,3.4077
2023-04-15T05:27:48.132Z,4.7462
2023-04-15T05:28:49.729Z,4.2769
2023-04-15T05:29:51.407Z,6.2769
2023-04-15T05:30:53.069Z,4.6462
2023-04-15T05:31:54.660Z,3.4000
2023-04-15T05:32:56.329Z,5.2000
2023-04-15T05:33:58.003Z,6.0462
2023-04-15T05:34:59.628Z,3.9231
2023-04-15T05:36:01.219Z,3.7154
2023-04-15T05:37:02.918Z,4.2462
2023-04-15T05:38:04.564Z,3.6462
2023-04-15T05:39:06.332Z,3.4385
2023-04-15T05:40:07.953Z,5.4923
2023-04-15T05:41:09.638Z,5.4385
2023-04-15T05:42:11.249Z,3.4000
2023-04-15T05:43:12.864Z,4.2000
2023-04-15T05:44:14.605Z,2.8000
2023-04-15T05:45:16.192Z,4.4769
2023-04-15T05:46:18.002Z,3.9692
2023-04-15T05:47:19.576Z,5.3385
2023-04-15T05:48:21.167Z,3.6462
2023-04-15T05:49:22.840Z,3.9000
2023-04-15T05:50:24.431Z,4.0692
2023-04-15T05:51:26.085Z,4.4385
2023-04-15T05:52:27.704Z,4.1154
2023-04-15T05:53:29.358Z,2.5308
2023-04-15T05:54:31.056Z,5.4077
2023-04-15T05:55:32.673Z,4.7692
2023-04-15T05:56:34.311Z,7.1769
2023-04-15T05:57:36.029Z,4.3846
2023-04-15T05:58:37.712Z,4.1692
2023-04-15T05:59:39.352Z,4.2615
2023-04-15T06:00:41.009Z,3.1692
2023-04-15T06:01:42.590Z,2.8231
2023-04-15T06:02:44.420Z,3.7615
2023-04-15T06:03:46.110Z,4.7308
2023-04-15T06:04:47.643Z,2.9000
2023-04-15T06:05:49.212Z,2.5000
2023-04-15T06:06:50.868Z,4.6846
2023-04-15T06:07:52.443Z,2.8231
2023-04-15T06:08:54.116Z,3.1615
2023-04-15T06:09:55.801Z,3.3846
2023-04-15T06:10:57.402Z,3.8077
2023-04-15T06:11:59.060Z,3.4231
2023-04-15T06:13:00.700Z,3.0923
2023-04-15T06:14:02.387Z,4.3308
2023-04-15T06:15:04.034Z,4.1846
2023-04-15T06:16:05.701Z,3.5154
2023-04-15T06:17:07.315Z,4.4154
2023-04-15T06:18:08.936Z,4.2538
2023-04-15T06:19:10.642Z,4.3154
2023-04-15T06:20:12.273Z,4.9308
2023-04-15T06:21:13.914Z,5.7538
2023-04-15T06:22:15.559Z,6.7077
2023-04-15T06:23:17.247Z,4.1308
2023-04-15T06:24:18.856Z,4.8846
2023-04-15T06:25:20.533Z,3.7692
2023-04-15T06:26:22.179Z,3.4231
2023-04-15T06:27:23.805Z,4.5769
2023-04-15T06:28:25.460Z,4.4769
2023-04-15T06:29:27.152Z,3.9923
2023-04-15T06:30:28.772Z,3.0308
2023-04-15T06:31:30.508Z,3.6923
2023-04-15T06:32:32.120Z,3.1385
2023-04-15T06:33:33.704Z,4.2000
2023-04-15T06:34:35.406Z,4.2846
2023-04-15T06:35:37.025Z,4.0308
2023-04-15T06:36:38.660Z,4.0077
2023-04-15T06:37:40.357Z,4.0846
2023-04-15T06:38:41.969Z,2.5000
2023-04-15T06:39:43.683Z,2.8769
2023-04-15T06:40:45.301Z,2.9615
2023-04-15T06:41:46.929Z,3.5923
2023-04-15T06:42:48.613Z,4.4385
2023-04-15T06:43:50.254Z,4.9000
2023-04-15T06:44:51.942Z,4.5615
2023-04-15T06:45:53.538Z,4.2923
2023-04-15T06:46:55.193Z,5.1538
2023-04-15T06:47:56.896Z,4.4769
2023-04-15T06:48:59.596Z,3.6385
2023-04-15T06:50:00.295Z,5.8538
2023-04-15T06:51:01.892Z,3.7462
2023-04-15T06:52:03.534Z,4.1846
2023-04-15T06:53:05.198Z,4.0000
2023-04-15T06:54:06.836Z,3.7769
2023-04-15T06:55:08.550Z,3.7000
2023-04-15T06:56:10.197Z,4.5538
2023-04-15T06:57:11.795Z,4.6923
2023-04-15T06:58:13.472Z,5.1000
2023-04-15T06:59:15.129Z,5.0923
2023-04-15T07:00:16.801Z,4.3231
2023-04-15T07:01:18.494Z,3.9385
2023-04-15T07:02:20.175Z,3.4615
2023-04-15T07:03:21.700Z,4.6538
2023-04-15T07:04:23.397Z,3.5462
2023-04-15T07:05:25.091Z,5.9000
2023-04-15T07:06:26.700Z,6.4846
2023-04-15T07:07:28.369Z,4.1538
2023-04-15T07:08:29.958Z,4.4000
2023-04-15T07:09:31.581Z,5.3846
2023-04-15T07:10:33.390Z,3.8154
2023-04-15T07:11:34.920Z,4.7615
2023-04-15T07:12:36.563Z,3.6923
2023-04-15T07:13:38.181Z,3.6308
2023-04-15T07:14:39.812Z,3.7385
2023-04-15T07:15:41.505Z,4.8462
2023-04-15T07:16:43.187Z,5.2692
2023-04-15T07:17:44.787Z,6.5154
2023-04-15T07:18:46.371Z,4.4538
2023-04-15T07:19:48.035Z,4.9154
2023-04-15T07:20:49.746Z,5.4538
2023-04-15T07:21:51.350Z,4.8385
2023-04-15T07:22:52.954Z,4.6385
2023-04-15T07:23:54.774Z,4.7385
2023-04-15T07:24:56.268Z,5.4000
2023-04-15T07:25:57.950Z,4.4308
2023-04-15T07:27:01.014Z,5.2000
2023-04-15T07:28:01.309Z,4.5154
2023-04-15T07:29:03.183Z,5.0538
2023-04-15T07:30:04.551Z,5.1462
2023-04-15T07:31:06.282Z,5.2692
2023-04-15T07:32:07.975Z,6.3231
2023-04-15T07:33:09.501Z,4.9769
2023-04-15T07:34:11.172Z,5.8385
2023-04-15T07:35:12.823Z,4.9000
2023-04-15T07:36:14.506Z,4.3385
2023-04-15T07:37:16.102Z,4.9154
2023-04-15T07:38:17.742Z,5.1692
2023-04-15T07:39:19.444Z,4.2385
2023-04-15T07:40:21.052Z,5.4077
2023-04-15T07:41:22.764Z,4.4769
2023-04-15T07:42:24.338Z,6.1077
2023-04-15T07:43:26.058Z,5.2385
2023-04-15T07:44:27.716Z,6.4077
2023-04-15T07:45:29.279Z,4.3538
2023-04-15T07:46:30.997Z,6.6308
2023-04-15T07:47:32.660Z,5.5077
2023-04-15T07:48:35.613Z,4.4231
2023-04-15T07:49:35.856Z,5.2923
2023-04-15T07:50:37.429Z,4.3000
2023-04-15T07:51:39.047Z,5.6846
2023-04-15T07:52:40.693Z,5.2231
2023-04-15T07:53:42.327Z,5.1692
2023-04-15T07:54:44.005Z,5.2538
2023-04-15T07:55:45.657Z,6.8462
2023-04-15T07:56:47.366Z,7.5462
2023-04-15T07:57:48.943Z,4.0077
2023-04-15T07:58:50.604Z,7.0615
2023-04-15T07:59:52.242Z,5.4923
2023-04-15T08:00:53.872Z,6.0231
2023-04-15T08:01:55.593Z,5.0462
2023-04-15T08:02:57.321Z,5.1615
2023-04-15T08:03:58.889Z,5.9692
2023-04-15T08:05:00.493Z,5.8615
2023-04-15T08:06:02.095Z,5.7231
2023-04-15T08:07:03.752Z,4.6769
2023-04-15T08:08:05.386Z,5.4538
2023-04-15T08:09:07.252Z,5.4308
2023-04-15T08:10:08.678Z,4.7615
2023-04-15T08:11:10.539Z,6.0923
2023-04-15T08:12:12.002Z,6.2846
2023-04-15T08:13:13.605Z,4.4077
2023-04-15T08:14:15.237Z,5.3000
2023-04-15T08:15:16.896Z,4.2692
2023-04-15T08:16:18.631Z,5.3692
2023-04-15T08:17:20.235Z,4.5462
2023-04-15T08:18:21.934Z,4.6308
2023-04-15T08:19:23.477Z,6.5615
2023-04-15T08:20:25.137Z,5.0538
2023-04-15T08:21:26.755Z,5.0538
2023-04-15T08:22:28.482Z,5.6769
2023-04-15T08:23:30.061Z,4.4000
2023-04-15T08:24:31.709Z,5.0923
2023-04-15T08:25:33.430Z,4.7615
2023-04-15T08:26:35.050Z,4.1923
2023-04-15T08:27:36.756Z,6.1923
2023-04-15T08:28:38.345Z,6.0077
2023-04-15T08:29:39.993Z,5.7923
2023-04-15T08:30:41.646Z,6.2000
2023-04-15T08:31:43.354Z,5.9077
2023-04-15T08:32:45.049Z,7.0538
2023-04-15T08:33:46.594Z,4.8692
2023-04-15T08:34:48.257Z,5.4077
2023-04-15T08:35:49.862Z,6.3231
2023-04-15T08:36:51.590Z,4.9385
2023-04-15T08:37:53.220Z,4.7538
2023-04-15T08:38:54.854Z,5.1385
2023-04-15T08:39:56.480Z,5.3462
2023-04-15T08:40:58.093Z,5.3538
2023-04-15T08:41:59.721Z,4.8923
2023-04-15T08:43:01.401Z,4.7231
2023-04-15T08:44:03.067Z,7.9154
2023-04-15T08:45:04.685Z,5.3000
2023-04-15T08:46:06.230Z,5.2077
2023-04-15T08:47:07.983Z,4.8385
2023-04-15T08:48:09.574Z,4.6538
2023-04-15T08:49:11.162Z,5.1692
2023-04-15T08:50:12.817Z,5.2692
2023-04-15T08:51:14.483Z,4.0846
2023-04-15T08:52:16.129Z,7.2846
2023-04-15T08:53:17.741Z,6.5000
2023-04-15T08:54:19.413Z,4.1615
2023-04-15T08:55:21.025Z,5.4308
2023-04-15T08:56:22.698Z,5.2692
2023-04-15T08:57:24.321Z,5.5615
2023-04-15T08:58:25.987Z,4.5615
2023-04-15T08:59:27.587Z,4.0769
2023-04-15T09:00:29.244Z,5.2538
2023-04-15T09:01:30.935Z,5.0769
2023-04-15T09:02:32.620Z,4.9385
2023-04-15T09:03:34.356Z,6.1846
2023-04-15T09:04:35.796Z,5.9692
2023-04-15T09:05:37.485Z,6.5462
2023-04-15T09:06:39.074Z,5.1077
2023-04-15T09:07:40.718Z,5.1077
2023-04-15T09:08:42.399Z,4.7462
2023-04-15T09:09:44.005Z,5.9308
2023-04-15T09:10:45.657Z,6.3077
2023-04-15T09:11:47.298Z,7.1462
2023-04-15T09:12:48.940Z,7.1308
2023-04-15T09:13:50.641Z,7.7615
2023-04-15T09:14:52.256Z,5.9538
2023-04-15T09:15:53.885Z,5.5462
2023-04-15T09:16:55.560Z,4.2923
2023-04-15T09:17:57.219Z,6.6308
2023-04-15T09:18:58.821Z,6.2000
2023-04-15T09:20:00.437Z,4.9769
2023-04-15T09:21:02.101Z,5.8154
2023-04-15T09:22:03.795Z,6.6615
2023-04-15T09:23:05.456Z,7.2231
2023-04-15T09:24:07.174Z,7.1923
2023-04-15T09:25:08.911Z,5.3231
2023-04-15T09:26:10.424Z,5.9385
2023-04-15T09:27:12.082Z,5.4692
2023-04-15T09:28:13.737Z,6.5692
2023-04-15T09:29:15.341Z,6.6385
2023-04-15T09:30:17.049Z,5.3923
2023-04-15T09:31:18.698Z,4.4769
2023-04-15T09:32:20.274Z,7.0538
2023-04-15T09:33:21.899Z,6.9692
2023-04-15T09:34:23.490Z,5.1308
2023-04-15T09:35:25.095Z,6.4923
2023-04-15T09:36:26.753Z,4.1692
2023-04-15T09:37:32.461Z,5.5154
2023-04-15T09:38:30.082Z,4.9308
2023-04-15T09:39:31.701Z,5.5923
2023-04-15T09:40:33.374Z,6.8077
2023-04-15T09:41:34.972Z,5.2154
2023-04-15T09:42:36.643Z,5.2846
2023-04-15T09:43:38.283Z,6.0385
2023-04-15T09:44:39.893Z,4.9231
2023-04-15T09:45:41.576Z,4.4231
2023-04-15T09:46:43.215Z,5.4231
2023-04-15T09:47:44.843Z,5.4000
2023-04-15T09:48:46.719Z,6.7923
2023-04-15T09:49:48.244Z,6.5154
2023-04-15T09:50:49.735Z,5.8077
2023-04-15T09:52:04.124Z,6.1231
2023-04-15T09:52:53.043Z,4.7077
2023-04-15T09:53:54.685Z,6.1769
2023-04-15T09:54:56.327Z,4.7692
2023-04-15T09:55:57.934Z,5.7923
2023-04-15T09:56:59.588Z,5.3385
2023-04-15T09:58:01.200Z,5.2154
2023-04-15T09:59:02.882Z,5.0077
2023-04-15T10:00:04.496Z,4.8077
2023-04-15T10:01:06.193Z,3.7385
2023-04-15T10:02:07.978Z,4.1462
2023-04-15T10:03:09.553Z,4.9000
2023-04-15T10:04:11.266Z,6.4231
2023-04-15T10:05:12.738Z,5.5462
2023-04-15T10:06:14.365Z,6.3615
2023-04-15T10:07:16.019Z,6.0538
2023-04-15T10:08:17.638Z,6.1000
2023-04-15T10:09:19.405Z,4.6769
2023-04-15T10:10:21.017Z,5.1846
2023-04-15T10:11:22.653Z,5.8308
2023-04-15T10:12:24.343Z,7.2308
2023-04-15T10:13:25.960Z,5.0000
2023-04-15T10:14:27.666Z,5.3000
2023-04-15T10:15:29.362Z,4.6231
2023-04-15T10:16:30.930Z,4.3846
2023-04-15T10:17:32.651Z,3.7846
2023-04-15T10:18:34.195Z,5.2462
2023-04-15T10:19:35.874Z,5.7462
2023-04-15T10:20:37.475Z,7.9462
2023-04-15T10:21:39.151Z,5.4154
2023-04-15T10:22:40.781Z,4.3154
2023-04-15T10:23:42.414Z,5.5769
2023-04-15T10:24:44.133Z,5.8846
2023-04-15T10:25:45.707Z,5.8538
2023-04-15T10:26:47.389Z,7.3846
2023-04-15T10:27:48.967Z,8.3538
2023-04-15T10:28:50.672Z,6.6154
2023-04-15T10:29:52.230Z,7.9692
2023-04-15T10:30:53.901Z,5.1462
2023-04-15T10:31:55.421Z,8.4154
2023-04-15T10:32:57.100Z,7.8308
2023-04-15T10:33:58.753Z,7.0231
2023-04-15T10:35:00.374Z,5.9077
2023-04-15T10:36:02.040Z,4.5462
2023-04-15T10:37:03.765Z,5.8769
2023-04-15T10:38:05.267Z,6.7154
2023-04-15T10:39:06.898Z,6.0385
2023-04-15T10:40:08.597Z,4.8923
2023-04-15T10:41:10.198Z,5.8923
2023-04-15T10:42:11.837Z,5.5538
2023-04-15T10:43:13.478Z,7.4615
2023-04-15T10:44:15.138Z,5.6231
2023-04-15T10:45:16.800Z,4.7077
2023-04-15T10:46:18.449Z,5.2231
2023-04-15T10:47:20.050Z,5.8154
2023-04-15T10:48:21.708Z,5.3000
2023-04-15T10:49:23.359Z,6.1077
2023-04-15T10:50:25.013Z,5.3538
2023-04-15T10:51:26.664Z,4.3615
2023-04-15T10:52:28.291Z,4.5692
2023-04-15T10:53:29.926Z,4.6000
2023-04-15T10:54:31.585Z,4.4077
2023-04-15T10:55:33.269Z,6.2615
2023-04-15T10:56:34.860Z,5.2615
2023-04-15T10:57:36.491Z,6.1000
2023-04-15T10:58:38.135Z,5.6462
2023-04-15T10:59:39.768Z,6.0846
2023-04-15T11:00:41.435Z,5.8538
2023-04-15T11:01:43.072Z,6.2000
2023-04-15T11:02:44.933Z,4.8308
2023-04-15T11:03:46.490Z,6.1231
2023-04-15T11:04:48.133Z,5.0846
2023-04-15T11:05:49.841Z,6.0692
2023-04-15T11:06:51.354Z,6.6154
2023-04-15T11:07:53.020Z,6.1385
2023-04-15T11:08:54.609Z,4.9692
2023-04-15T11:09:56.249Z,6.2308
2023-04-15T11:10:57.932Z,3.9231
2023-04-15T11:11:59.564Z,5.2154
2023-04-15T11:13:01.195Z,5.0923
2023-04-15T11:14:03.039Z,9.2923
2023-04-15T11:15:04.468Z,6.8462
2023-04-15T11:16:06.187Z,4.5000
2023-04-15T11:17:07.768Z,6.1692
2023-04-15T11:18:09.413Z,5.8615
2023-04-15T11:19:10.913Z,5.3231
2023-04-15T11:20:12.650Z,5.8077
2023-04-15T11:21:14.270Z,4.7462
2023-04-15T11:22:15.884Z,5.6846
2023-04-15T11:23:17.523Z,6.4308
2023-04-15T11:24:19.164Z,6.6769
2023-04-15T11:25:20.788Z,6.3692
2023-04-15T11:26:22.446Z,5.2538
2023-04-15T11:27:24.083Z,6.0154
2023-04-15T11:28:25.727Z,5.4000
2023-04-15T11:29:27.420Z,5.5769
2023-04-15T11:30:29.089Z,5.7231
2023-04-15T11:31:30.743Z,5.5308
2023-04-15T11:32:32.399Z,5.9615
2023-04-15T11:33:33.972Z,5.9769
2023-04-15T11:34:36.225Z,5.0769
2023-04-15T11:35:37.286Z,5.5538
2023-04-15T11:36:38.944Z,7.2769
2023-04-15T11:37:40.542Z,5.6385
2023-04-15T11:38:42.186Z,5.1538
2023-04-15T11:39:43.812Z,4.9692
2023-04-15T11:40:47.184Z,6.7923
2023-04-15T11:41:47.146Z,6.4308
2023-04-15T11:42:49.859Z,4.5077
2023-04-15T11:43:50.391Z,5.3000
2023-04-15T11:44:52.046Z,5.6385
2023-04-15T11:45:53.824Z,4.9385
2023-04-15T11:46:55.347Z,6.2692
2023-04-15T11:47:57.009Z,4.9154
2023-04-15T11:48:58.644Z,5.1231
2023-04-15T11:50:00.248Z,5.1615
2023-04-15T11:51:01.933Z,4.4077
2023-04-15T11:52:03.562Z,5.2769
2023-04-15T11:53:08.163Z,5.6923
2023-04-15T11:54:07.116Z,4.9462
2023-04-15T11:55:08.680Z,5.0000
2023-04-15T11:56:10.215Z,5.4154
2023-04-15T11:57:11.887Z,5.4385
2023-04-15T11:58:15.108Z,6.3769
2023-04-15T11:59:15.114Z,4.3462
2023-04-15T12:00:16.763Z,6.0231
2023-04-15T12:01:18.393Z,6.2615
2023-04-15T12:02:20.190Z,4.3154
2023-04-15T12:03:21.845Z,4.4769
2023-04-15T12:04:25.626Z,5.0692
2023-04-15T12:05:25.096Z,4.4385
2023-04-15T12:06:26.594Z,3.7462
2023-04-15T12:07:28.367Z,5.1462
2023-04-15T12:08:29.986Z,4.6077
2023-04-15T12:09:32.478Z,3.5923
2023-04-15T12:10:33.195Z,5.2923
2023-04-15T12:11:34.831Z,5.8077
2023-04-15T12:12:36.514Z,6.8154
2023-04-15T12:13:38.044Z,5.1769
2023-04-15T12:14:39.704Z,5.0615
2023-04-15T12:15:41.354Z,4.0231
2023-04-15T12:16:48.377Z,4.5846
2023-04-15T12:17:51.300Z,6.4385
2023-04-15T12:18:46.226Z,5.4923
2023-04-15T12:19:47.894Z,3.9000
2023-04-15T12:20:49.522Z,4.4615
2023-04-15T12:21:51.191Z,4.1385
2023-04-15T12:22:52.826Z,4.4769
2023-04-15T12:23:54.435Z,4.8615
2023-04-15T12:24:56.085Z,4.1615
2023-04-15T12:25:57.722Z,5.2462
2023-04-15T12:26:59.362Z,5.8385
2023-04-15T12:28:01.037Z,5.2308
2023-04-15T12:29:02.679Z,4.7923
2023-04-15T12:30:04.501Z,5.3154
2023-04-15T12:31:05.992Z,4.7538
2023-04-15T12:32:07.584Z,4.9538
2023-04-15T12:33:09.304Z,5.6769
2023-04-15T12:34:10.845Z,4.9846
2023-04-15T12:35:12.499Z,3.7000
2023-04-15T12:36:14.167Z,4.3231
2023-04-15T12:37:15.783Z,3.7846
2023-04-15T12:38:17.449Z,4.8462
2023-04-15T12:39:19.062Z,5.1385
2023-04-15T12:40:20.727Z,3.5538
2023-04-15T12:41:22.363Z,3.4615
2023-04-15T12:42:24.003Z,3.2308
2023-04-15T12:43:25.647Z,3.7231
2023-04-15T12:44:27.310Z,3.2308
2023-04-15T12:45:30.033Z,4.1615
2023-04-15T12:46:30.688Z,4.0923
2023-04-15T12:47:32.364Z,4.5692
2023-04-15T12:48:34.033Z,4.5308